Time;durP1;ratioP1;P1;durP2;ratioP2;P2;SDS_P1;SDS_P2;PMS_P1;PMS_P2;Temp;Humidity;BMP_temperature;BMP_pressure;BME280_temperature;BME280_humidity;BME280_pressure;Samples;Min_cycle;Max_cycle;Signal;HPM_P1;HPM_P2
2022/10/11 00:00:13;;;;;;;;;;;;;;;7.30;72.73;99211.88;87273;1288;23458;-80
2022/10/11 00:02:34;;;;;;;26.30;15.60;;;;;;;7.30;73.05;99211.35;87345;1295;22505;-79
2022/10/11 00:04:35;;;;;;;28.30;15.10;;;;;;;7.32;72.94;99211.63;87432;1291;22626;-79
2022/10/11 00:06:37;;;;;;;32.40;15.80;;;;;;;7.34;72.97;99208.61;87314;1287;22869;-79
2022/10/11 00:08:38;;;;;;;22.90;15.60;;;;;;;7.31;73.21;99210.27;87643;1304;22484;-80
2022/10/11 00:10:40;;;;;;;29.60;15.40;;;;;;;7.28;72.63;99212.98;87516;1291;22819;-79
2022/10/11 00:12:41;;;;;;;;;;;;;;;7.27;72.99;99215.29;87462;1296;22453;-79
2022/10/11 00:14:42;;;;;;;30.10;15.20;;;;;;;7.26;73.17;99216.71;87401;1295;22719;-79
2022/10/11 00:16:43;;;;;;;27.60;14.90;;;;;;;7.26;73.18;99216.91;87280;1288;23301;-80
2022/10/11 00:18:44;;;;;;;28.70;16.30;;;;;;;7.25;73.14;99213.45;87374;1288;22522;-79
2022/10/11 00:20:45;;;;;;;32.10;16.70;;;;;;;7.24;73.20;99214.35;87320;1297;22508;-79
2022/10/11 00:22:48;;;;;;;26.50;15.70;;;;;;;7.24;73.09;99217.14;87464;1296;22544;-78
2022/10/11 00:24:51;;;;;;;30.10;16.00;;;;;;;7.25;73.05;99214.32;87664;1291;22510;-78
2022/10/11 00:26:52;;;;;;;35.30;16.30;;;;;;;7.25;73.43;99210.48;87295;1297;22500;-80
2022/10/11 00:28:55;;;;;;;28.50;15.30;;;;;;;7.24;73.43;99208.40;87387;1311;22002;-78
2022/10/11 00:30:56;;;;;;;30.70;16.70;;;;;;;7.27;73.38;99211.45;87414;1290;22723;-80
2022/10/11 00:32:57;;;;;;;25.90;15.20;;;;;;;7.30;73.63;99210.33;87499;1285;22508;-80
2022/10/11 00:35:03;;;;;;;26.50;16.00;;;;;;;7.31;73.56;99209.41;87203;1293;22533;-78
2022/10/11 00:37:04;;;;;;;32.70;15.50;;;;;;;7.33;73.39;99213.36;87246;1296;22668;-80
2022/10/11 00:39:06;;;;;;;26.50;16.00;;;;;;;7.36;73.26;99210.30;87588;1303;22501;-79
2022/10/11 00:41:08;;;;;;;33.50;15.10;;;;;;;7.38;73.62;99210.61;87548;1287;22477;-79
2022/10/11 00:43:13;;;;;;;;;;;;;;;7.38;73.43;99210.42;87543;1285;22500;-78
2022/10/11 00:45:30;;;;;;;37.90;16.80;;;;;;;7.37;73.54;99213.79;87530;1312;22506;-78
2022/10/11 00:47:31;;;;;;;34.90;15.00;;;;;;;7.39;73.86;99218.27;87569;1288;22057;-79
2022/10/11 00:49:40;;;;;;;26.30;14.70;;;;;;;7.39;73.68;99218.61;87342;1291;22355;-79
2022/10/11 00:52:05;;;;;;;21.10;14.30;;;;;;;7.39;73.74;99217.20;87539;1291;24838;-79
2022/10/11 00:54:10;;;;;;;26.30;14.60;;;;;;;7.39;73.68;99216.87;87343;1284;198829;-80
2022/10/11 00:56:22;;;;;;;25.70;15.40;;;;;;;7.37;73.69;99212.90;87451;1288;25380;-80
2022/10/11 00:58:24;;;;;;;25.80;15.50;;;;;;;7.34;73.76;99209.52;87598;1309;22709;-79
2022/10/11 01:00:24;;;;;;;28.40;15.70;;;;;;;7.33;73.64;99210.77;87307;1294;23733;-79
2022/10/11 01:02:29;;;;;;;28.80;16.00;;;;;;;7.30;73.77;99212.56;87144;1313;25196;-78
2022/10/11 01:04:30;;;;;;;24.20;15.00;;;;;;;7.29;73.74;99215.77;87360;1295;24241;-79
2022/10/11 01:06:32;;;;;;;25.70;15.00;;;;;;;7.28;73.80;99219.99;87404;1288;23106;-78
2022/10/11 01:08:37;;;;;;;25.00;15.40;;;;;;;7.30;73.64;99217.48;87480;1287;22722;-79
2022/10/11 01:10:39;;;;;;;30.70;16.70;;;;;;;7.30;74.04;99218.89;87204;1296;22524;-78
2022/10/11 01:12:45;;;;;;;;;;;;;;;7.30;73.92;99221.50;87346;1295;22458;-79
2022/10/11 01:14:58;;;;;;;29.50;15.70;;;;;;;7.28;74.20;99223.14;87636;1292;22800;-79
2022/10/11 01:17:21;;;;;;;27.10;15.90;;;;;;;7.26;74.01;99221.09;87321;1305;25836;-79
2022/10/11 01:19:43;;;;;;;33.30;16.70;;;;;;;7.25;73.95;99219.73;87233;1287;23288;-79
2022/10/11 01:22:02;;;;;;;28.30;16.90;;;;;;;7.24;73.80;99217.65;87412;1297;22493;-78
2022/10/11 01:24:42;;;;;;;28.10;17.10;;;;;;;7.24;74.03;99216.11;87119;1291;22501;-80
2022/10/11 01:27:17;;;;;;;30.90;16.10;;;;;;;7.23;73.99;99213.16;87342;1295;25384;-79
2022/10/11 01:29:43;;;;;;;25.50;15.20;;;;;;;7.20;73.83;99214.33;87453;1288;22696;-79
2022/10/11 01:31:55;;;;;;;24.00;15.80;;;;;;;7.17;74.01;99212.48;87712;1303;22169;-80
2022/10/11 01:34:08;;;;;;;35.40;16.40;;;;;;;7.15;73.86;99213.58;87170;1288;22559;-79
2022/10/11 01:36:26;;;;;;;28.50;16.30;;;;;;;7.14;73.91;99209.94;87405;1296;22216;-79
2022/10/11 01:38:43;;;;;;;31.60;16.10;;;;;;;7.09;73.93;99207.27;87368;1295;22583;-79
2022/10/11 01:40:51;;;;;;;31.50;16.10;;;;;;;7.12;74.14;99209.46;87418;1295;22916;-79
2022/10/11 01:42:56;;;;;;;41.70;17.80;;;;;;;7.11;74.02;99214.55;87240;1295;22517;-79
2022/10/11 01:44:59;;;;;;;34.90;17.40;;;;;;;7.11;74.13;99216.66;87301;1297;22485;-79
2022/10/11 01:46:59;;;;;;;27.50;17.50;;;;;;;7.11;74.19;99214.73;87045;1295;22717;-78
2022/10/11 01:49:02;;;;;;;34.80;18.10;;;;;;;7.12;74.37;99218.02;86960;1291;24360;-79
2022/10/11 01:51:03;;;;;;;43.60;20.40;;;;;;;7.13;74.32;99215.55;87290;1290;22461;-79
2022/10/11 01:53:15;;;;;;;;;;;;;;;7.12;74.28;99215.42;87216;1312;22680;-79
2022/10/11 01:55:30;;;;;;;31.70;18.30;;;;;;;7.10;74.10;99217.75;87179;1281;23473;-79
2022/10/11 01:57:43;;;;;;;31.20;18.10;;;;;;;7.08;74.46;99222.69;87088;1292;23246;-80
2022/10/11 02:00:02;;;;;;;37.70;20.60;;;;;;;7.06;74.22;99224.52;87182;1288;23187;-78
2022/10/11 02:02:15;;;;;;;32.50;19.90;;;;;;;7.01;74.38;99229.20;87189;1290;26601;-79
2022/10/11 02:04:30;;;;;;;36.20;21.10;;;;;;;6.99;74.56;99228.90;87099;1296;22459;-79
2022/10/11 02:06:55;;;;;;;41.50;22.80;;;;;;;7.01;74.58;99228.16;86918;1296;22847;-78
2022/10/11 02:09:12;;;;;;;38.30;22.70;;;;;;;7.02;74.70;99228.64;86962;1296;22581;-79
2022/10/11 02:11:34;;;;;;;45.00;22.20;;;;;;;6.97;74.92;99214.13;87281;1287;22518;-79
2022/10/11 02:13:44;;;;;;;43.20;22.70;;;;;;;7.05;74.86;99230.29;87192;1303;23756;-79
2022/10/11 02:15:48;;;;;;;37.20;22.50;;;;;;;7.06;74.74;99223.98;87176;1291;22474;-79
2022/10/11 02:17:55;;;;;;;42.30;23.70;;;;;;;7.07;74.74;99224.14;87194;1306;25264;-79
2022/10/11 02:19:58;;;;;;;47.70;24.70;;;;;;;7.07;74.89;99224.81;86972;1291;22789;-79
2022/10/11 02:22:07;;;;;;;46.40;25.30;;;;;;;7.09;74.83;99222.67;87228;1291;22614;-80
2022/10/11 02:24:15;;;;;;;43.60;24.90;;;;;;;7.11;74.90;99222.78;87440;1298;22612;-79
2022/10/11 02:26:18;;;;;;;54.90;25.30;;;;;;;7.14;75.10;99225.31;87092;1294;23311;-79
2022/10/11 02:28:27;;;;;;;47.70;26.20;;;;;;;7.17;75.16;99224.35;87115;1280;22535;-80
2022/10/11 02:30:29;;;;;;;47.40;26.10;;;;;;;7.20;75.03;99221.28;86985;1295;25925;-78
2022/10/11 02:32:31;;;;;;;53.80;26.80;;;;;;;7.23;74.91;99218.94;87280;1287;22582;-79
2022/10/11 02:34:38;;;;;;;54.80;28.40;;;;;;;7.25;75.13;99223.91;87090;1295;22503;-80
2022/10/11 02:37:02;;;;;;;50.00;28.40;;;;;;;7.27;75.01;99222.13;87224;1288;23914;-80
2022/10/11 02:39:16;;;;;;;54.50;28.00;;;;;;;7.30;74.94;99222.36;87347;1281;23222;-80
2022/10/11 02:41:22;;;;;;;50.60;27.10;;;;;;;7.34;74.95;99226.63;87207;1295;22822;-80
2022/10/11 02:43:35;;;;;;;74.70;26.10;;;;;;;7.38;75.23;99231.42;86847;1287;22444;-78
2022/10/11 02:45:41;;;;;;;50.80;27.30;;;;;;;7.41;75.26;99233.08;87240;1294;22452;-79
2022/10/11 02:47:44;;;;;;;52.20;28.20;;;;;;;7.43;75.23;99228.63;87199;1288;22582;-79
2022/10/11 02:49:45;;;;;;;47.80;26.70;;;;;;;7.45;75.30;99228.91;87059;1291;25341;-78
2022/10/11 02:51:45;;;;;;;51.80;27.10;;;;;;;7.46;75.14;99228.89;87117;1294;22908;-79
2022/10/11 02:53:46;;;;;;;54.50;26.90;;;;;;;7.49;74.93;99234.71;86999;1289;22562;-78
2022/10/11 02:55:51;;;;;;;60.10;26.90;;;;;;;7.50;75.47;99233.99;87212;1288;22490;-79
2022/10/11 02:57:52;;;;;;;58.80;28.70;;;;;;;7.53;75.37;99232.15;87083;1290;22421;-78
2022/10/11 02:59:53;;;;;;;57.50;28.20;;;;;;;7.54;75.23;99237.17;87170;1295;22774;-79
2022/10/11 03:01:54;;;;;;;50.80;25.50;;;;;;;7.56;75.32;99238.87;87267;1302;25652;-79
2022/10/11 03:03:55;;;;;;;50.30;25.20;;;;;;;7.57;75.47;99241.45;86909;1313;22843;-79
2022/10/11 03:06:01;;;;;;;39.50;23.10;;;;;;;7.58;75.19;99242.48;86970;1297;22539;-79
2022/10/11 03:08:02;;;;;;;48.60;25.60;;;;;;;7.57;75.43;99239.90;87220;1289;22489;-79
2022/10/11 03:10:05;;;;;;;43.70;24.10;;;;;;;7.55;75.31;99238.75;87138;1312;23739;-79
2022/10/11 03:12:07;;;;;;;44.00;24.30;;;;;;;7.55;75.37;99240.85;87001;1301;24396;-79
2022/10/11 03:14:08;;;;;;;51.30;24.40;;;;;;;7.54;75.16;99243.48;87009;1283;22665;-78
2022/10/11 03:16:09;;;;;;;46.20;24.00;;;;;;;7.54;75.17;99245.42;86932;1296;22572;-79
2022/10/11 03:18:09;;;;;;;42.40;23.90;;;;;;;7.53;75.26;99244.91;87318;1295;24387;-79
2022/10/11 03:20:11;;;;;;;40.20;22.90;;;;;;;7.51;75.41;99245.00;87132;1296;23068;-79
2022/10/11 03:22:11;;;;;;;40.60;22.90;;;;;;;7.49;75.30;99243.27;87005;1280;22621;-80
2022/10/11 03:24:13;;;;;;;44.60;24.70;;;;;;;7.47;75.21;99247.56;87220;1290;24199;-79
2022/10/11 03:26:14;;;;;;;41.50;24.60;;;;;;;7.48;75.31;99249.29;87086;1288;22459;-79
2022/10/11 03:28:16;;;;;;;50.40;26.70;;;;;;;7.47;75.56;99249.47;87125;1287;24309;-78
2022/10/11 03:30:17;;;;;;;48.70;26.20;;;;;;;7.46;75.56;99249.33;87220;1295;22469;-78
2022/10/11 03:32:18;;;;;;;46.70;26.80;;;;;;;7.47;75.45;99249.46;87002;1290;22497;-79
2022/10/11 03:34:19;;;;;;;39.20;25.10;;;;;;;7.47;75.63;99251.21;87006;1297;23073;-79
2022/10/11 03:36:21;;;;;;;47.60;26.60;;;;;;;7.45;75.44;99249.02;87027;1298;22499;-79
2022/10/11 03:38:24;;;;;;;;;;;;;;;7.47;75.45;99255.95;87067;1312;22452;-77
2022/10/11 03:40:25;;;;;;;45.90;25.20;;;;;;;7.47;75.94;99256.30;87155;1298;22594;-79
2022/10/11 03:42:26;;;;;;;54.70;27.70;;;;;;;7.47;75.59;99258.92;87377;1293;22532;-78
2022/10/11 03:44:27;;;;;;;74.10;28.60;;;;;;;7.47;75.85;99261.53;87136;1300;22556;-78
2022/10/11 03:46:29;;;;;;;50.10;26.50;;;;;;;7.45;75.81;99262.81;86992;1288;22504;-83
2022/10/11 03:48:30;;;;;;;52.00;26.90;;;;;;;7.43;75.74;99265.66;87098;1294;22511;-80
2022/10/11 03:50:31;;;;;;;47.10;25.90;;;;;;;7.45;75.78;99270.16;87078;1291;22443;-79
2022/10/11 03:52:34;;;;;;;46.40;27.30;;;;;;;7.45;75.79;99266.50;87286;1294;22429;-79
2022/10/11 03:54:35;;;;;;;45.90;28.30;;;;;;;7.44;75.85;99268.45;87141;1290;22485;-79
2022/10/11 03:56:36;;;;;;;48.50;29.30;;;;;;;7.45;75.94;99271.94;87189;1288;22862;-79
2022/10/11 03:58:39;;;;;;;42.90;28.50;;;;;;;7.47;76.03;99265.74;87202;1296;22562;-79
2022/10/11 04:00:40;;;;;;;56.80;28.20;;;;;;;7.48;75.83;99265.34;87112;1294;22656;-79
2022/10/11 04:02:41;;;;;;;56.10;29.70;;;;;;;7.51;76.19;99268.08;87243;1304;22451;-79
2022/10/11 04:04:43;;;;;;;56.10;29.00;;;;;;;7.54;76.15;99266.40;87237;1295;25344;-78
2022/10/11 04:06:44;;;;;;;59.00;29.90;;;;;;;7.57;75.69;99269.27;87193;1290;22607;-79
2022/10/11 04:08:44;;;;;;;51.20;29.60;;;;;;;7.60;76.03;99270.59;87232;1297;22036;-79
2022/10/11 04:10:47;;;;;;;57.30;30.10;;;;;;;7.63;75.68;99270.32;87572;1295;25357;-79
2022/10/11 04:12:48;;;;;;;55.40;31.30;;;;;;;7.66;76.12;99275.81;87255;1296;23522;-79
2022/10/11 04:14:49;;;;;;;49.60;29.90;;;;;;;7.69;75.96;99273.27;87329;1294;22485;-79
2022/10/11 04:16:50;;;;;;;52.70;30.30;;;;;;;7.71;76.17;99273.04;87290;1313;22475;-79
2022/10/11 04:18:52;;;;;;;54.10;30.10;;;;;;;7.71;75.88;99270.95;87182;1287;22522;-80
2022/10/11 04:20:52;;;;;;;57.50;28.60;;;;;;;7.71;75.93;99271.48;87237;1295;25902;-79
2022/10/11 04:22:53;;;;;;;46.90;27.10;;;;;;;7.69;76.09;99272.05;87350;1291;22749;-80
2022/10/11 04:24:54;;;;;;;54.90;28.20;;;;;;;7.68;76.05;99274.89;87122;1291;21998;-80
2022/10/11 04:26:55;;;;;;;46.10;25.70;;;;;;;7.66;75.74;99275.13;87292;1288;22597;-79
2022/10/11 04:28:56;;;;;;;50.50;27.10;;;;;;;7.65;75.94;99273.91;87023;1291;22527;-79
2022/10/11 04:30:57;;;;;;;46.10;27.30;;;;;;;7.65;76.07;99275.84;87164;1296;22492;-80
2022/10/11 04:32:59;;;;;;;42.60;26.80;;;;;;;7.65;75.93;99269.36;86961;1288;26446;-80
2022/10/11 04:35:00;;;;;;;46.00;27.30;;;;;;;7.66;76.37;99273.73;86797;1287;22496;-79
2022/10/11 04:37:01;;;;;;;45.00;27.50;;;;;;;7.68;76.31;99275.23;87069;1291;22497;-80
2022/10/11 04:39:04;;;;;;;49.20;27.70;;;;;;;7.70;76.25;99275.18;87279;1307;25387;-79
2022/10/11 04:41:13;;;;;;;42.90;27.90;;;;;;;7.70;76.06;99277.27;86811;1298;26519;-79
2022/10/11 04:43:15;;;;;;;58.90;27.50;;;;;;;7.71;76.21;99273.40;86755;1306;22585;-79
2022/10/11 04:45:16;;;;;;;47.10;27.20;;;;;;;7.73;76.31;99273.88;86971;1285;22576;-79
2022/10/11 04:47:17;;;;;;;53.40;28.20;;;;;;;7.76;76.41;99272.55;86856;1289;22827;-79
2022/10/11 04:49:18;;;;;;;;;;;;;;;7.79;76.42;99279.97;86794;1297;22422;-79
2022/10/11 04:51:21;;;;;;;46.00;27.00;;;;;;;7.80;76.70;99281.17;86877;1287;24202;-80
2022/10/11 04:53:22;;;;;;;46.10;27.10;;;;;;;7.82;76.90;99283.02;86688;1298;23050;-79
2022/10/11 04:55:23;;;;;;;50.70;26.30;;;;;;;7.86;76.63;99284.27;86710;1298;22478;-80
2022/10/11 04:57:24;;;;;;;50.10;25.70;;;;;;;7.90;76.50;99287.32;86436;1291;22621;-81
2022/10/11 04:59:25;;;;;;;45.60;25.40;;;;;;;7.92;76.39;99287.59;86681;1293;22493;-81
2022/10/11 05:01:26;;;;;;;43.20;25.20;;;;;;;7.94;76.57;99287.17;86542;1311;25399;-80
2022/10/11 05:03:27;;;;;;;41.80;26.30;;;;;;;7.97;76.50;99287.60;86656;1287;22564;-80
2022/10/11 05:05:28;;;;;;;;;;;;;;;8.01;76.92;99293.23;86598;1312;24257;-81
2022/10/11 05:07:28;;;;;;;47.40;25.70;;;;;;;8.04;76.92;99292.83;86464;1293;22861;-80
2022/10/11 05:09:30;;;;;;;43.90;26.10;;;;;;;8.07;76.92;99292.89;86675;1289;22998;-81
2022/10/11 05:11:30;;;;;;;39.30;26.20;;;;;;;8.06;76.81;99284.68;86522;1287;24238;-80
2022/10/11 05:13:33;;;;;;;40.00;25.80;;;;;;;8.14;76.91;99295.61;86360;1290;22488;-80
2022/10/11 05:15:34;;;;;;;55.10;27.40;;;;;;;8.16;77.00;99296.45;86244;1294;22538;-80
2022/10/11 05:17:35;;;;;;;44.00;27.00;;;;;;;8.18;76.80;99299.15;86834;1309;23367;-80
2022/10/11 05:19:36;;;;;;;44.80;25.70;;;;;;;8.20;77.09;99301.73;86374;1288;23146;-80
2022/10/11 05:21:37;;;;;;;55.60;26.50;;;;;;;8.20;77.38;99296.30;86268;1287;22523;-79
2022/10/11 05:23:41;;;;;;;46.00;27.20;;;;;;;8.26;77.07;99303.64;86244;1290;22486;-78
2022/10/11 05:25:42;;;;;;;;;;;;;;;8.29;77.25;99308.96;86052;1299;22487;-80
2022/10/11 05:27:43;;;;;;;87.70;25.70;;;;;;;8.28;77.26;99309.16;86354;1312;22475;-79
2022/10/11 05:29:44;;;;;;;50.20;27.80;;;;;;;8.34;77.09;99317.01;85970;1290;24281;-80
2022/10/11 05:31:45;;;;;;;53.80;26.90;;;;;;;8.39;77.50;99320.02;86070;1298;22625;-80
2022/10/11 05:33:47;;;;;;;39.00;26.00;;;;;;;8.42;77.85;99322.88;86633;1284;22497;-79
2022/10/11 05:35:49;;;;;;;47.90;26.90;;;;;;;8.45;77.20;99325.80;85958;1298;23234;-80
2022/10/11 05:37:50;;;;;;;;;;;;;;;8.48;77.51;99329.91;86056;1294;24260;-80
2022/10/11 05:39:50;;;;;;;41.40;24.80;;;;;;;8.49;77.58;99332.29;86015;1294;23422;-79
2022/10/11 05:41:51;;;;;;;41.10;24.20;;;;;;;8.50;77.59;99333.84;85942;1290;22568;-79
2022/10/11 05:43:52;;;;;;;34.80;24.30;;;;;;;8.47;77.36;99327.64;85779;1298;22474;-79
2022/10/11 05:45:53;;;;;;;41.10;24.20;;;;;;;8.56;77.70;99335.42;85998;1294;24788;-79
2022/10/11 05:47:54;;;;;;;42.20;25.40;;;;;;;8.59;77.68;99342.47;85888;1291;22702;-80
2022/10/11 05:49:55;;;;;;;39.90;25.80;;;;;;;8.61;77.89;99343.98;86161;1297;22502;-79
2022/10/11 05:51:56;;;;;;;37.20;25.30;;;;;;;8.63;77.70;99346.36;86054;1300;26026;-78
2022/10/11 05:53:57;;;;;;;41.00;25.50;;;;;;;8.64;77.72;99343.36;85916;1297;22524;-80
2022/10/11 05:55:59;;;;;;;47.60;27.80;;;;;;;8.68;77.74;99350.92;86087;1302;24323;-80
2022/10/11 05:58:00;;;;;;;50.70;29.50;;;;;;;8.71;77.80;99351.20;86232;1309;22526;-79
2022/10/11 06:00:01;;;;;;;56.50;30.30;;;;;;;8.74;77.78;99354.42;86077;1313;22473;-81
2022/10/11 06:02:02;;;;;;;48.40;29.30;;;;;;;8.76;78.05;99355.56;86006;1294;24240;-80
2022/10/11 06:04:04;;;;;;;48.50;29.50;;;;;;;8.79;77.77;99359.13;86067;1303;22633;-80
2022/10/11 06:06:07;;;;;;;46.70;30.70;;;;;;;8.82;77.91;99361.82;86241;1294;22625;-80
2022/10/11 06:08:09;;;;;;;;;;;;;;;8.85;77.90;99363.30;86302;1287;24280;-80
2022/10/11 06:10:11;;;;;;;46.10;27.00;;;;;;;8.88;77.73;99366.55;86273;1293;25332;-80
2022/10/11 06:12:12;;;;;;;52.20;29.10;;;;;;;8.92;77.93;99367.12;85999;1294;22511;-80
2022/10/11 06:14:13;;;;;;;49.40;28.60;;;;;;;8.95;77.73;99368.56;86001;1284;23383;-80
2022/10/11 06:16:15;;;;;;;49.00;26.90;;;;;;;9.00;78.02;99369.79;86158;1287;23151;-80
2022/10/11 06:18:15;;;;;;;44.40;27.30;;;;;;;9.05;77.81;99373.48;86247;1291;22619;-79
2022/10/11 06:20:16;;;;;;;39.80;24.90;;;;;;;9.10;77.81;99376.64;86086;1296;22553;-80
2022/10/11 06:22:17;;;;;;;37.10;23.40;;;;;;;9.16;77.85;99374.15;85970;1290;22523;-80
2022/10/11 06:24:18;;;;;;;30.80;19.70;;;;;;;9.23;78.20;99377.92;86126;1313;22526;-79
2022/10/11 06:26:19;;;;;;;38.80;23.30;;;;;;;9.29;78.07;99377.87;86142;1296;22506;-80
2022/10/11 06:28:20;;;;;;;42.70;25.80;;;;;;;9.36;78.14;99385.52;86122;1286;22633;-80
2022/10/11 06:30:21;;;;;;;50.10;26.70;;;;;;;9.43;78.17;99384.58;85973;1298;23557;-81
2022/10/11 06:32:22;;;;;;;42.70;26.30;;;;;;;9.48;78.07;99385.41;86554;1287;23018;-81
2022/10/11 06:34:23;;;;;;;50.80;27.60;;;;;;;9.54;77.96;99386.79;86245;1304;22643;-79
2022/10/11 06:36:24;;;;;;;53.10;28.70;;;;;;;9.59;77.79;99386.80;86094;1294;22494;-80
2022/10/11 06:38:26;;;;;;;50.90;27.80;;;;;;;9.64;77.95;99389.21;86648;1289;23683;-79
2022/10/11 06:40:27;;;;;;;56.50;29.00;;;;;;;9.69;78.09;99386.92;86477;1290;22521;-80
2022/10/11 06:42:28;;;;;;;44.20;25.30;;;;;;;9.76;78.02;99391.79;86443;1301;23511;-80
2022/10/11 06:44:29;;;;;;;57.70;27.80;;;;;;;9.80;77.97;99396.16;86752;1293;22471;-81
2022/10/11 06:46:32;;;;;;;55.60;27.40;;;;;;;9.86;77.94;99401.91;86751;1300;24094;-80
2022/10/11 06:48:33;;;;;;;54.90;27.60;;;;;;;9.91;77.90;99402.60;86112;1294;22903;-79
2022/10/11 06:50:36;;;;;;;53.20;28.40;;;;;;;9.97;78.01;99411.65;86018;1309;22563;-80
2022/10/11 06:52:37;;;;;;;45.70;27.10;;;;;;;10.02;77.93;99407.05;86096;1287;22612;-79
2022/10/11 06:54:39;;;;;;;45.40;26.20;;;;;;;10.08;77.87;99406.86;86208;1296;22519;-81
2022/10/11 06:56:40;;;;;;;44.90;25.10;;;;;;;10.11;78.04;99404.27;86235;1289;22665;-79
2022/10/11 06:58:41;;;;;;;;;;;;;;;10.17;77.92;99409.48;86041;1287;22775;-80
2022/10/11 07:00:42;;;;;;;42.50;25.20;;;;;;;10.19;77.91;99407.45;86124;1294;22691;-80
2022/10/11 07:02:43;;;;;;;37.70;23.90;;;;;;;10.27;77.97;99409.80;86040;1295;25221;-80
2022/10/11 07:04:44;;;;;;;39.30;23.50;;;;;;;10.32;78.05;99413.81;86162;1287;25836;-81
2022/10/11 07:06:45;;;;;;;38.00;24.10;;;;;;;10.37;77.92;99420.64;86057;1312;22602;-80
2022/10/11 07:08:47;;;;;;;34.50;20.00;;;;;;;10.44;77.95;99421.64;86047;1296;22921;-81
2022/10/11 07:10:47;;;;;;;27.80;17.80;;;;;;;10.49;77.86;99426.14;86057;1287;22482;-81
2022/10/11 07:12:48;;;;;;;40.80;17.80;;;;;;;10.56;77.96;99426.58;86386;1296;22618;-81
2022/10/11 07:14:49;;;;;;;33.60;18.30;;;;;;;10.62;77.83;99427.23;86566;1312;24542;-81
2022/10/11 07:16:50;;;;;;;28.20;17.20;;;;;;;10.66;77.70;99428.61;86452;1313;23071;-81
2022/10/11 07:18:53;;;;;;;36.00;16.90;;;;;;;10.69;77.80;99430.80;86509;1296;23951;-80
2022/10/11 07:20:54;;;;;;;26.40;16.40;;;;;;;10.70;77.82;99432.48;86039;1302;22705;-80
2022/10/11 07:22:55;;;;;;;28.00;17.90;;;;;;;10.68;77.84;99435.20;85986;1287;22472;-80
2022/10/11 07:24:56;;;;;;;26.40;16.50;;;;;;;10.65;78.02;99437.45;86081;1289;23033;-79
2022/10/11 07:26:59;;;;;;;30.00;17.00;;;;;;;10.60;78.24;99435.56;85987;1297;22524;-79
2022/10/11 07:29:00;;;;;;;37.00;18.80;;;;;;;10.60;78.18;99444.35;85882;1293;22488;-79
2022/10/11 07:31:10;;;;;;;26.80;18.10;;;;;;;10.58;78.21;99443.03;86017;1298;22481;-79
2022/10/11 07:33:11;;;;;;;35.70;19.00;;;;;;;10.56;78.46;99443.09;86298;1291;22605;-78
2022/10/11 07:35:12;;;;;;;28.10;17.50;;;;;;;10.56;78.58;99444.33;86313;1288;22718;-79
2022/10/11 07:37:13;;;;;;;25.80;17.50;;;;;;;10.55;78.48;99448.58;86294;1302;24296;-79
2022/10/11 07:39:14;;;;;;;28.40;18.20;;;;;;;10.54;78.58;99449.85;86481;1289;22533;-79
2022/10/11 07:41:15;;;;;;;30.90;16.30;;;;;;;10.53;78.64;99457.63;86269;1297;22568;-79
2022/10/11 07:43:16;;;;;;;27.20;17.70;;;;;;;10.52;78.70;99452.58;86375;1290;22614;-78
2022/10/11 07:45:18;;;;;;;30.50;17.30;;;;;;;10.52;78.74;99457.48;86372;1292;22862;-78
2022/10/11 07:47:18;;;;;;;;;;;;;;;10.50;78.77;99457.03;86448;1297;24253;-79
2022/10/11 07:49:20;;;;;;;39.20;18.10;;;;;;;10.47;78.79;99463.69;86612;1287;22480;-78
2022/10/11 07:51:22;;;;;;;24.20;16.40;;;;;;;10.46;78.84;99466.52;86733;1295;22588;-80
2022/10/11 07:53:24;;;;;;;31.70;17.40;;;;;;;10.45;78.88;99468.46;86470;1287;23997;-78
2022/10/11 07:55:34;;;;;;;26.40;17.00;;;;;;;10.46;78.76;99468.98;86631;1295;22741;-78
2022/10/11 07:57:35;;;;;;;31.60;16.80;;;;;;;10.46;78.94;99471.44;86720;1286;25516;-78
2022/10/11 07:59:36;;;;;;;26.20;17.80;;;;;;;10.46;79.00;99470.38;86532;1298;24374;-78
2022/10/11 08:04:14;;;;;;;29.40;16.40;;;;;;;10.50;79.07;99470.04;79367;1297;974424;-76
2022/10/11 08:06:24;;;;;;;27.70;16.60;;;;;;;10.51;79.03;99467.71;85521;1295;23164;-77
2022/10/11 08:08:26;;;;;;;27.00;17.60;;;;;;;10.54;79.11;99475.52;85350;1302;23887;-77
2022/10/11 08:10:28;;;;;;;30.40;20.10;;;;;;;10.57;79.17;99481.73;85531;1296;23288;-76
2022/10/11 08:12:28;;;;;;;;;;;;;;;10.59;79.14;99480.92;85287;1298;22599;-77
2022/10/11 08:14:29;;;;;;;39.20;21.60;;;;;;;10.61;79.19;99483.52;85443;1300;22568;-77
2022/10/11 08:16:31;;;;;;;40.10;21.90;;;;;;;10.61;79.23;99485.23;85429;1292;22494;-77
2022/10/11 08:18:32;;;;;;;37.90;22.80;;;;;;;10.64;79.27;99485.30;85465;1295;22547;-76
2022/10/11 08:20:33;;;;;;;34.40;22.30;;;;;;;10.67;79.23;99483.42;85062;1295;22573;-77
2022/10/11 08:22:34;;;;;;;33.00;21.90;;;;;;;10.69;79.33;99485.42;85323;1298;22611;-77
2022/10/11 08:24:35;;;;;;;36.60;21.70;;;;;;;10.72;79.35;99488.98;85318;1295;24429;-77
2022/10/11 08:26:36;;;;;;;42.50;22.90;;;;;;;10.76;79.23;99486.06;85358;1299;22493;-78
2022/10/11 08:28:37;;;;;;;32.80;20.60;;;;;;;10.78;79.45;99481.74;85255;1295;23143;-76
2022/10/11 08:30:38;;;;;;;35.40;20.00;;;;;;;10.81;79.36;99479.52;85376;1292;25416;-77
2022/10/11 08:32:39;;;;;;;;;;;;;;;10.83;79.38;99476.80;85448;1298;22555;-77
2022/10/11 08:34:41;;;;;;;40.40;19.70;;;;;;;10.85;79.45;99479.70;85468;1299;22609;-77
2022/10/11 08:36:42;;;;;;;34.30;18.40;;;;;;;10.89;79.40;99482.90;85176;1295;22492;-77
2022/10/11 08:38:43;;;;;;;24.70;15.90;;;;;;;10.91;79.37;99484.39;85156;1295;23590;-78
2022/10/11 08:40:49;;;;;;;22.00;16.40;;;;;;;10.94;79.40;99487.95;85567;1289;22520;-78
2022/10/11 08:43:01;;;;;;;28.50;15.70;;;;;;;10.97;79.45;99491.14;85324;1295;22505;-77
2022/10/11 08:45:07;;;;;;;27.80;14.20;;;;;;;11.01;79.40;99496.79;85487;1291;22517;-76
2022/10/11 08:47:21;;;;;;;31.10;14.80;;;;;;;11.05;79.43;99496.63;85170;1301;22560;-77
2022/10/11 08:49:28;;;;;;;21.40;13.90;;;;;;;11.11;79.34;99494.98;85269;1300;22490;-77
2022/10/11 08:52:01;;;;;;;32.50;14.90;;;;;;;11.16;79.43;99497.75;85302;1302;22615;-78
2022/10/11 08:54:41;;;;;;;26.60;15.70;;;;;;;11.22;79.28;99498.53;85376;1292;22664;-78
2022/10/11 08:56:44;;;;;;;25.80;16.20;;;;;;;11.29;79.25;99501.42;85616;1296;22938;-77
2022/10/11 08:58:45;;;;;;;29.50;15.90;;;;;;;11.34;79.30;99498.07;85667;1303;22497;-78
2022/10/11 09:00:51;;;;;;;19.10;15.40;;;;;;;11.39;79.34;99493.78;85669;1297;24738;-78
2022/10/11 09:03:04;;;;;;;29.30;16.50;;;;;;;11.46;79.37;99488.73;85407;1299;22546;-78
2022/10/11 09:05:13;;;;;;;34.10;17.70;;;;;;;11.55;79.30;99491.70;85362;1301;22670;-78
2022/10/11 09:07:51;;;;;;;24.90;16.00;;;;;;;11.62;79.18;99491.57;85280;1298;22714;-79
2022/10/11 09:09:58;;;;;;;26.40;15.70;;;;;;;11.69;79.17;99496.02;85527;1295;25112;-78
2022/10/11 09:12:04;;;;;;;20.10;14.70;;;;;;;11.75;79.12;99498.89;85480;1295;25389;-78
2022/10/11 09:14:41;;;;;;;21.80;14.60;;;;;;;11.81;79.07;99499.16;85327;1302;22545;-79
2022/10/11 09:17:07;;;;;;;21.90;14.00;;;;;;;11.88;79.21;99500.96;84902;1308;25303;-79
2022/10/11 09:19:20;;;;;;;20.90;14.00;;;;;;;11.95;79.16;99499.27;85031;1308;23575;-78
2022/10/11 09:21:43;;;;;;;23.20;10.20;;;;;;;12.02;79.14;99494.58;84943;1301;22547;-80
2022/10/11 09:24:02;;;;;;;31.20;15.20;;;;;;;12.08;79.13;99498.17;84892;1301;24404;-80
2022/10/11 09:26:09;;;;;;;21.90;15.80;;;;;;;12.17;79.12;99502.36;85010;1305;22529;-78
2022/10/11 09:28:40;;;;;;;29.80;16.40;;;;;;;12.31;79.33;99503.45;84985;1307;25424;-78
2022/10/11 09:30:48;;;;;;;21.40;14.60;;;;;;;12.53;79.28;99503.14;84934;1308;23213;-77
2022/10/11 09:33:01;;;;;;;28.30;15.60;;;;;;;12.67;79.00;99507.05;84849;1307;22545;-76
2022/10/11 09:35:15;;;;;;;29.60;15.90;;;;;;;12.77;78.94;99507.23;84909;1307;24922;-77
2022/10/11 09:37:45;;;;;;;39.60;16.20;;;;;;;12.91;78.93;99502.71;84627;1311;26459;-76
2022/10/11 09:40:00;;;;;;;30.40;15.90;;;;;;;13.02;78.65;99501.11;84814;1308;23059;-75
2022/10/11 09:42:05;;;;;;;29.20;15.30;;;;;;;13.12;78.77;99506.10;84966;1300;24322;-77
2022/10/11 09:44:07;;;;;;;26.10;15.60;;;;;;;13.22;78.70;99503.62;84795;1308;22588;-76